createdAt,value
2022-08-24T00:01:18.412Z,58.70
2022-08-24T00:03:45.954Z,60.47
2022-08-24T00:06:17.071Z,64.21
2022-08-24T00:08:44.332Z,62.60
2022-08-24T00:11:11.105Z,57.93
2022-08-24T00:13:39.493Z,56.97
2022-08-24T00:16:07.939Z,58.16
2022-08-24T00:18:35.083Z,59.70
2022-08-24T00:21:02.119Z,61.42
2022-08-24T00:23:29.230Z,64.43
2022-08-24T00:25:57.048Z,62.96
2022-08-24T00:28:24.111Z,58.59
2022-08-24T00:30:50.867Z,57.01
2022-08-24T00:33:17.689Z,58.52
2022-08-24T00:35:44.741Z,60.49
2022-08-24T00:38:11.369Z,63.23
2022-08-24T00:40:42.327Z,62.25
2022-08-24T00:43:10.609Z,58.33
2022-08-24T00:45:43.057Z,58.16
2022-08-24T00:48:17.120Z,59.16
2022-08-24T00:50:53.578Z,61.46
2022-08-24T00:53:42.552Z,63.49
2022-08-24T00:56:20.418Z,62.33
2022-08-24T00:58:58.798Z,58.23
2022-08-24T01:01:27.525Z,58.63
2022-08-24T01:03:57.243Z,59.96
2022-08-24T01:06:24.692Z,62.89
2022-08-24T01:08:54.139Z,61.93
2022-08-24T01:11:27.589Z,58.41
2022-08-24T01:14:02.057Z,58.67
2022-08-24T01:16:47.393Z,61.00
2022-08-24T01:19:29.869Z,62.66
2022-08-24T01:22:15.286Z,61.26
2022-08-24T01:24:42.983Z,57.32
2022-08-24T01:27:11.193Z,57.06
2022-08-24T01:29:40.696Z,58.30
2022-08-24T01:32:07.270Z,60.84
2022-08-24T01:34:33.792Z,63.66
2022-08-24T01:37:01.965Z,62.68
2022-08-24T01:39:33.417Z,58.33
2022-08-24T01:42:01.248Z,57.11
2022-08-24T01:44:33.451Z,59.12
2022-08-24T01:47:00.936Z,60.98
2022-08-24T01:49:36.373Z,63.45
2022-08-24T01:52:05.871Z,62.66
2022-08-24T01:54:33.296Z,58.31
2022-08-24T01:57:00.281Z,57.42
2022-08-24T01:59:27.750Z,59.09
2022-08-24T02:02:21.544Z,60.50
2022-08-24T02:04:48.353Z,64.09
2022-08-24T02:07:14.881Z,62.19
2022-08-24T02:09:41.795Z,58.09
2022-08-24T02:12:08.709Z,57.27
2022-08-24T02:14:35.933Z,58.94
2022-08-24T02:17:04.873Z,61.34
2022-08-24T02:19:31.747Z,64.23
2022-08-24T02:21:59.960Z,62.78
2022-08-24T02:24:29.875Z,58.16
2022-08-24T02:26:57.112Z,57.43
2022-08-24T02:29:24.280Z,58.47
2022-08-24T02:31:51.245Z,60.59
2022-08-24T02:34:17.881Z,63.12
2022-08-24T02:36:44.721Z,62.09
2022-08-24T02:39:11.251Z,58.09
2022-08-24T02:41:37.926Z,57.13
2022-08-24T02:44:05.940Z,58.42
2022-08-24T02:46:32.972Z,60.01
2022-08-24T02:49:11.298Z,63.60
2022-08-24T02:51:44.548Z,62.55
2022-08-24T02:54:17.013Z,57.95
2022-08-24T02:56:44.030Z,57.20
2022-08-24T02:59:10.957Z,58.77
2022-08-24T03:01:37.593Z,60.81
2022-08-24T03:04:04.996Z,63.67
2022-08-24T03:06:32.151Z,62.42
2022-08-24T03:08:58.804Z,58.46
2022-08-24T03:11:27.912Z,57.50
2022-08-24T03:13:58.013Z,58.84
2022-08-24T03:16:26.227Z,60.85
2022-08-24T03:18:53.049Z,64.12
2022-08-24T03:21:20.174Z,62.93
2022-08-24T03:23:47.155Z,58.30
2022-08-24T03:26:13.783Z,57.55
2022-08-24T03:28:40.801Z,59.28
2022-08-24T03:31:07.292Z,60.40
2022-08-24T03:33:33.895Z,63.99
2022-08-24T03:36:00.353Z,62.75
2022-08-24T03:38:27.836Z,58.16
2022-08-24T03:40:54.286Z,57.68
2022-08-24T03:43:40.027Z,59.09
2022-08-24T03:46:08.249Z,60.67
2022-08-24T03:48:36.096Z,63.66
2022-08-24T03:51:03.081Z,62.89
2022-08-24T03:53:29.664Z,58.72
2022-08-24T03:55:56.254Z,58.15
2022-08-24T03:58:22.696Z,60.23
2022-08-24T04:00:49.314Z,61.68
2022-08-24T04:03:15.877Z,64.46
2022-08-24T04:05:42.455Z,62.33
2022-08-24T04:08:09.047Z,58.01
2022-08-24T04:10:35.606Z,58.14
2022-08-24T04:13:02.532Z,59.69
2022-08-24T04:15:31.576Z,61.21
2022-08-24T04:17:58.329Z,63.73
2022-08-24T04:20:25.218Z,61.58
2022-08-24T04:22:51.971Z,59.01
2022-08-24T04:25:24.707Z,58.41
2022-08-24T04:27:51.585Z,59.71
2022-08-24T04:30:18.183Z,61.65
2022-08-24T04:32:44.943Z,63.97
2022-08-24T04:35:12.477Z,63.26
2022-08-24T04:37:38.911Z,58.87
2022-08-24T04:40:07.628Z,57.96
2022-08-24T04:42:34.960Z,59.68
2022-08-24T04:45:02.307Z,61.18
2022-08-24T04:47:28.814Z,63.98
2022-08-24T04:49:55.232Z,63.17
2022-08-24T04:52:21.845Z,58.42
2022-08-24T04:54:48.488Z,57.00
2022-08-24T04:57:18.196Z,58.08
2022-08-24T04:59:45.965Z,59.54
2022-08-24T05:02:12.809Z,61.61
2022-08-24T05:04:39.713Z,64.41
2022-08-24T05:07:06.120Z,63.06
2022-08-24T05:09:32.749Z,58.28
2022-08-24T05:12:00.783Z,57.22
2022-08-24T05:14:29.142Z,58.74
2022-08-24T05:16:56.099Z,59.33
2022-08-24T05:19:23.702Z,60.69
2022-08-24T05:21:50.886Z,63.55
2022-08-24T05:24:18.989Z,61.85
2022-08-24T05:26:45.790Z,55.62
2022-08-24T05:29:12.450Z,54.48
2022-08-24T05:31:43.237Z,56.42
2022-08-24T05:34:10.186Z,57.64
2022-08-24T05:36:38.648Z,58.86
2022-08-24T05:39:11.292Z,60.14
2022-08-24T05:41:43.960Z,61.83
2022-08-24T05:44:13.404Z,64.30
2022-08-24T05:46:40.396Z,62.56
2022-08-24T05:49:07.704Z,57.25
2022-08-24T05:51:35.447Z,54.95
2022-08-24T05:54:04.478Z,57.28
2022-08-24T05:56:32.116Z,59.20
2022-08-24T05:58:58.859Z,60.85
2022-08-24T06:01:26.687Z,61.58
2022-08-24T06:03:54.834Z,62.65
2022-08-24T06:06:23.345Z,63.23
2022-08-24T06:08:52.220Z,59.61
2022-08-24T06:11:30.075Z,55.34
2022-08-24T06:14:00.592Z,55.52
2022-08-24T06:16:27.493Z,57.55
2022-08-24T06:18:54.297Z,59.13
2022-08-24T06:21:24.201Z,61.01
2022-08-24T06:23:51.061Z,62.28
2022-08-24T06:26:38.237Z,63.00
2022-08-24T06:29:06.687Z,58.59
2022-08-24T06:31:42.011Z,56.07
2022-08-24T06:34:10.665Z,57.29
2022-08-24T06:36:37.720Z,59.61
2022-08-24T06:39:08.610Z,61.59
2022-08-24T06:41:38.315Z,62.73
2022-08-24T06:44:06.452Z,61.37
2022-08-24T06:46:33.319Z,56.64
2022-08-24T06:49:00.381Z,56.46
2022-08-24T06:51:26.872Z,58.61
2022-08-24T06:53:57.990Z,60.41
2022-08-24T06:56:24.570Z,60.85
2022-08-24T06:58:51.411Z,62.73
2022-08-24T07:01:20.553Z,59.67
2022-08-24T07:03:47.422Z,56.64
2022-08-24T07:06:17.551Z,57.91
2022-08-24T07:08:44.443Z,59.63
2022-08-24T07:11:14.069Z,61.25
2022-08-24T07:13:41.576Z,61.66
2022-08-24T07:16:09.469Z,63.14
2022-08-24T07:18:36.637Z,60.53
2022-08-24T07:21:04.607Z,56.23
2022-08-24T07:23:41.390Z,56.07
2022-08-24T07:26:22.331Z,57.15
2022-08-24T07:29:04.311Z,58.70
2022-08-24T07:31:36.387Z,60.27
2022-08-24T07:34:05.098Z,61.28
2022-08-24T07:36:31.727Z,60.98
2022-08-24T07:38:58.403Z,61.09
2022-08-24T07:44:14.990Z,63.66
2022-08-24T07:46:41.884Z,59.07
2022-08-24T07:49:11.964Z,54.64
2022-08-24T07:51:47.127Z,55.07
2022-08-24T07:54:14.933Z,56.75
2022-08-24T07:56:42.397Z,57.75
2022-08-24T07:59:13.068Z,58.87
2022-08-24T08:01:41.638Z,60.00
2022-08-24T08:04:09.280Z,61.23
2022-08-24T08:06:36.393Z,62.04
2022-08-24T08:09:04.795Z,63.93
2022-08-24T08:11:31.829Z,60.12
2022-08-24T08:13:58.651Z,55.28
2022-08-24T08:16:25.713Z,54.55
2022-08-24T08:19:09.366Z,55.36
2022-08-24T08:22:09.114Z,57.11
2022-08-24T08:24:37.828Z,58.57
2022-08-24T08:27:05.241Z,59.14
2022-08-24T08:29:33.515Z,60.12
2022-08-24T08:32:00.538Z,61.13
2022-08-24T08:34:27.733Z,63.77
2022-08-24T08:36:54.566Z,61.77
2022-08-24T08:39:22.898Z,55.70
2022-08-24T08:42:14.392Z,54.77
2022-08-24T08:45:01.901Z,55.05
2022-08-24T08:48:10.206Z,56.89
2022-08-24T08:51:16.773Z,58.35
2022-08-24T08:54:21.923Z,59.69
2022-08-24T08:57:07.435Z,60.28
2022-08-24T09:00:01.072Z,61.85
2022-08-24T09:02:49.544Z,63.68
2022-08-24T09:05:18.577Z,60.00
2022-08-24T09:07:54.915Z,54.29
2022-08-24T09:10:28.189Z,54.95
2022-08-24T09:13:19.327Z,56.09
2022-08-24T09:15:55.918Z,57.61
2022-08-24T09:18:31.880Z,58.31
2022-08-24T09:21:13.617Z,58.53
2022-08-24T09:24:08.231Z,58.84
2022-08-24T09:26:58.925Z,59.55
2022-08-24T09:30:09.417Z,61.60
2022-08-24T09:32:55.279Z,61.35
2022-08-24T09:35:36.946Z,63.00
2022-08-24T09:38:17.514Z,63.46
2022-08-24T09:41:21.712Z,57.28
2022-08-24T09:44:16.004Z,55.14
2022-08-24T09:46:57.572Z,56.41
2022-08-24T09:49:46.776Z,57.14
2022-08-24T09:52:34.836Z,57.89
2022-08-24T09:55:23.233Z,60.00
2022-08-24T09:58:02.025Z,59.78
2022-08-24T10:00:37.057Z,60.56
2022-08-24T10:03:36.480Z,60.95
2022-08-24T10:06:13.678Z,61.17
2022-08-24T10:09:10.492Z,61.71
2022-08-24T10:11:59.184Z,62.64
2022-08-24T10:14:31.369Z,61.44
2022-08-24T10:17:42.639Z,56.19
2022-08-24T10:20:25.506Z,54.93
2022-08-24T10:23:14.283Z,55.27
2022-08-24T10:26:18.195Z,56.83
2022-08-24T10:29:05.195Z,58.17
2022-08-24T10:31:40.366Z,58.30
2022-08-24T10:34:51.075Z,59.56
2022-08-24T10:37:34.820Z,60.12
2022-08-24T10:40:12.573Z,60.48
2022-08-24T10:43:13.173Z,61.77
2022-08-24T10:45:58.515Z,60.83
2022-08-24T10:48:33.479Z,57.63
2022-08-24T10:51:23.270Z,57.72
2022-08-24T10:53:53.069Z,58.59
2022-08-24T10:56:29.256Z,59.04
2022-08-24T10:59:18.200Z,59.49
2022-08-24T11:02:03.280Z,60.36
2022-08-24T11:04:39.089Z,60.93
2022-08-24T11:07:14.639Z,61.16
2022-08-24T11:09:56.400Z,61.61
2022-08-24T11:12:26.504Z,63.92
2022-08-24T11:14:56.880Z,61.44
2022-08-24T11:17:27.046Z,55.04
2022-08-24T11:19:54.529Z,53.60
2022-08-24T11:22:40.928Z,53.01
2022-08-24T11:25:19.127Z,54.57
2022-08-24T11:27:50.312Z,55.84
2022-08-24T11:30:19.378Z,57.02
2022-08-24T11:32:57.741Z,57.50
2022-08-24T11:35:42.085Z,58.10
2022-08-24T11:38:16.503Z,59.22
2022-08-24T11:41:07.743Z,59.91
2022-08-24T11:43:43.605Z,60.66
2022-08-24T11:46:13.673Z,60.66
2022-08-24T11:49:23.542Z,61.06
2022-08-24T11:52:21.578Z,61.85
2022-08-24T11:54:47.855Z,61.76
2022-08-24T11:57:32.724Z,61.98
2022-08-24T12:00:15.150Z,62.41
2022-08-24T12:03:02.002Z,59.52
2022-08-24T12:05:56.628Z,57.72
2022-08-24T12:08:45.464Z,58.37
2022-08-24T12:11:20.267Z,58.89
2022-08-24T12:14:02.110Z,59.53
2022-08-24T12:16:51.003Z,59.69
2022-08-24T12:19:25.266Z,59.43
2022-08-24T12:21:57.205Z,60.65
2022-08-24T12:24:33.032Z,61.26
2022-08-24T12:27:10.141Z,61.03
2022-08-24T12:29:44.107Z,61.79
2022-08-24T12:32:18.433Z,61.81
2022-08-24T12:35:06.168Z,61.79
2022-08-24T12:37:35.497Z,62.24
2022-08-24T12:40:08.093Z,64.49
2022-08-24T12:42:55.517Z,60.09
2022-08-24T12:45:23.811Z,55.26
2022-08-24T12:47:59.640Z,53.99
2022-08-24T12:50:33.207Z,54.87
2022-08-24T12:53:21.329Z,55.83
2022-08-24T12:56:04.924Z,57.46
2022-08-24T12:58:53.896Z,57.88
2022-08-24T13:01:25.523Z,58.51
2022-08-24T13:04:23.079Z,58.96
2022-08-24T13:06:59.880Z,59.88
2022-08-24T13:09:33.861Z,59.83
2022-08-24T13:12:38.604Z,60.12
2022-08-24T13:15:20.444Z,60.42
2022-08-24T13:17:49.558Z,60.89
2022-08-24T13:20:49.893Z,60.11
2022-08-24T13:23:18.339Z,60.98
2022-08-24T13:25:50.843Z,60.79
2022-08-24T13:28:20.120Z,61.43
2022-08-24T13:30:52.967Z,61.63
2022-08-24T13:34:01.550Z,61.69
2022-08-24T13:36:30.703Z,61.58
2022-08-24T13:39:10.514Z,61.65
2022-08-24T13:41:43.424Z,61.66
2022-08-24T13:44:33.844Z,61.58
2022-08-24T13:47:24.024Z,61.47
2022-08-24T13:50:09.521Z,61.49
2022-08-24T13:53:25.656Z,61.70
2022-08-24T13:56:11.835Z,62.04
2022-08-24T13:58:59.811Z,62.26
2022-08-24T14:01:30.511Z,63.56
2022-08-24T14:04:18.713Z,56.21
2022-08-24T14:06:59.211Z,55.08
2022-08-24T14:09:55.967Z,55.73
2022-08-24T14:12:38.076Z,56.20
2022-08-24T14:16:11.323Z,57.06
2022-08-24T14:18:53.621Z,58.00
2022-08-24T14:21:32.849Z,58.33
2022-08-24T14:24:10.272Z,58.69
2022-08-24T14:26:37.534Z,58.29
2022-08-24T14:29:19.437Z,58.33
2022-08-24T14:31:58.575Z,59.23
2022-08-24T14:34:34.291Z,59.03
2022-08-24T14:37:13.022Z,59.92
2022-08-24T14:39:48.787Z,60.17
2022-08-24T14:42:32.339Z,60.56
2022-08-24T14:45:09.814Z,61.08
2022-08-24T14:47:45.527Z,61.14
2022-08-24T14:50:14.458Z,61.61
2022-08-24T14:53:10.036Z,61.91
2022-08-24T14:55:41.539Z,65.08
2022-08-24T14:58:29.004Z,62.40
2022-08-24T15:01:14.282Z,56.14
2022-08-24T15:03:52.994Z,53.57
2022-08-24T15:06:28.495Z,54.45
2022-08-24T15:09:07.498Z,55.04
2022-08-24T15:11:38.784Z,56.05
2022-08-24T15:14:11.292Z,56.55
2022-08-24T15:16:54.141Z,57.07
2022-08-24T15:19:27.143Z,58.02
2022-08-24T15:22:03.341Z,57.82
2022-08-24T15:24:47.297Z,58.23
2022-08-24T15:27:22.852Z,59.49
2022-08-24T15:29:54.172Z,60.03
2022-08-24T15:32:22.849Z,60.61
2022-08-24T15:34:57.764Z,61.01
2022-08-24T15:37:26.870Z,61.33
2022-08-24T15:39:53.289Z,61.66
2022-08-24T15:42:20.490Z,61.70
2022-08-24T15:44:49.595Z,61.78
2022-08-24T15:47:18.817Z,61.56
2022-08-24T15:49:54.849Z,61.63
2022-08-24T15:52:43.261Z,61.74
2022-08-24T15:55:40.752Z,61.91
2022-08-24T15:58:26.153Z,62.74
2022-08-24T16:01:18.165Z,60.81
2022-08-24T16:03:52.167Z,56.36
2022-08-24T16:06:38.203Z,56.57
2022-08-24T16:09:07.639Z,57.42
2022-08-24T16:11:41.783Z,58.56
2022-08-24T16:14:29.674Z,59.18
2022-08-24T16:16:58.359Z,60.14
2022-08-24T16:19:30.567Z,61.07
2022-08-24T16:22:01.809Z,61.57
2022-08-24T16:24:35.520Z,62.15
2022-08-24T16:27:12.363Z,59.60
2022-08-24T16:29:38.938Z,55.23
2022-08-24T16:32:12.901Z,54.90
2022-08-24T16:34:52.403Z,56.11
2022-08-24T16:37:20.158Z,57.51
2022-08-24T16:39:48.323Z,58.57
2022-08-24T16:42:27.180Z,59.40
2022-08-24T16:44:54.822Z,60.26
2022-08-24T16:47:23.055Z,60.82
2022-08-24T16:49:50.892Z,61.63
2022-08-24T16:52:18.430Z,64.01
2022-08-24T16:54:46.082Z,61.35
2022-08-24T16:57:20.458Z,54.28
2022-08-24T16:59:48.160Z,54.22
2022-08-24T17:02:17.127Z,55.66
2022-08-24T17:04:44.109Z,56.51
2022-08-24T17:07:15.134Z,57.53
2022-08-24T17:09:45.714Z,58.59
2022-08-24T17:12:12.376Z,59.94
2022-08-24T17:14:39.044Z,60.67
2022-08-24T17:17:12.902Z,61.41
2022-08-24T17:19:40.215Z,62.07
2022-08-24T17:22:14.343Z,64.58
2022-08-24T17:24:44.043Z,62.34
2022-08-24T17:27:12.443Z,56.16
2022-08-24T17:29:39.802Z,55.46
2022-08-24T17:32:06.329Z,56.59
2022-08-24T17:34:33.269Z,57.78
2022-08-24T17:37:00.833Z,58.81
2022-08-24T17:39:27.639Z,59.64
2022-08-24T17:41:56.483Z,60.66
2022-08-24T17:44:26.469Z,61.72
2022-08-24T17:46:56.917Z,62.99
2022-08-24T17:49:23.541Z,61.71
2022-08-24T17:51:50.049Z,56.99
2022-08-24T17:54:17.053Z,55.90
2022-08-24T17:56:45.913Z,56.66
2022-08-24T17:59:24.115Z,57.76
2022-08-24T18:01:57.905Z,58.88
2022-08-24T18:04:29.515Z,60.06
2022-08-24T18:07:02.675Z,61.37
2022-08-24T18:09:32.915Z,63.45
2022-08-24T18:12:02.962Z,62.68
2022-08-24T18:14:30.282Z,57.59
2022-08-24T18:17:00.633Z,56.00
2022-08-24T18:19:27.466Z,56.90
2022-08-24T18:21:53.822Z,58.10
2022-08-24T18:24:20.461Z,59.45
2022-08-24T18:26:48.230Z,60.56
2022-08-24T18:29:17.410Z,61.55
2022-08-24T18:31:44.336Z,64.75
2022-08-24T18:34:16.558Z,63.14
2022-08-24T18:36:42.962Z,58.11
2022-08-24T18:39:09.445Z,56.41
2022-08-24T18:41:38.761Z,57.22
2022-08-24T18:44:07.495Z,58.23
2022-08-24T18:46:34.358Z,59.30
2022-08-24T18:49:01.829Z,60.69
2022-08-24T18:51:34.332Z,61.54
2022-08-24T18:54:10.083Z,64.40
2022-08-24T18:56:37.102Z,63.11
2022-08-24T18:59:04.458Z,58.14
2022-08-24T19:01:52.848Z,56.40
2022-08-24T19:04:19.400Z,57.35
2022-08-24T19:06:50.526Z,58.59
2022-08-24T19:09:17.412Z,59.88
2022-08-24T19:11:44.333Z,60.91
2022-08-24T19:14:12.103Z,64.16
2022-08-24T19:16:39.796Z,62.26
2022-08-24T19:19:06.844Z,57.43
2022-08-24T19:21:35.982Z,56.54
2022-08-24T19:24:03.963Z,57.36
2022-08-24T19:26:31.157Z,58.61
2022-08-24T19:28:58.876Z,59.60
2022-08-24T19:31:27.730Z,60.58
2022-08-24T19:33:59.238Z,61.48
2022-08-24T19:36:31.274Z,63.37
2022-08-24T19:38:58.624Z,62.57
2022-08-24T19:41:30.306Z,58.04
2022-08-24T19:44:27.888Z,56.60
2022-08-24T19:46:55.278Z,57.52
2022-08-24T19:49:22.280Z,58.85
2022-08-24T19:51:50.345Z,60.11
2022-08-24T19:54:17.475Z,61.14
2022-08-24T19:56:44.774Z,64.68
2022-08-24T19:59:26.103Z,62.85
2022-08-24T20:01:52.989Z,56.35
2022-08-24T20:04:19.501Z,55.06
2022-08-24T20:06:46.367Z,56.22
2022-08-24T20:09:13.076Z,57.40
2022-08-24T20:11:40.298Z,58.78
2022-08-24T20:14:07.036Z,60.11
2022-08-24T20:16:43.521Z,61.50
2022-08-24T20:19:11.227Z,65.15
2022-08-24T20:21:38.268Z,62.56
2022-08-24T20:24:05.831Z,55.82
2022-08-24T20:26:39.831Z,54.77
2022-08-24T20:29:06.688Z,55.47
2022-08-24T20:31:33.310Z,56.75
2022-08-24T20:34:00.028Z,57.99
2022-08-24T20:36:38.865Z,59.06
2022-08-24T20:39:09.166Z,60.05
2022-08-24T20:41:36.690Z,61.19
2022-08-24T20:44:03.899Z,64.90
2022-08-24T20:46:31.335Z,62.45
2022-08-24T20:48:58.764Z,55.79
2022-08-24T20:51:26.113Z,54.83
2022-08-24T20:53:53.422Z,55.87
2022-08-24T20:56:33.146Z,56.94
2022-08-24T20:59:09.209Z,58.24
2022-08-24T21:01:37.042Z,59.50
2022-08-24T21:04:05.477Z,60.77
2022-08-24T21:06:33.685Z,64.02
2022-08-24T21:09:00.440Z,62.79
2022-08-24T21:11:26.870Z,57.49
2022-08-24T21:13:53.353Z,56.23
2022-08-24T21:16:20.261Z,57.14
2022-08-24T21:18:47.291Z,58.14
2022-08-24T21:21:14.258Z,59.27
2022-08-24T21:23:40.923Z,60.45
2022-08-24T21:26:11.215Z,61.51
2022-08-24T21:28:41.358Z,65.03
2022-08-24T21:31:08.398Z,63.41
2022-08-24T21:33:53.258Z,58.34
2022-08-24T21:36:22.825Z,56.44
2022-08-24T21:38:51.426Z,57.53
2022-08-24T21:41:18.341Z,58.97
2022-08-24T21:43:45.013Z,60.10
2022-08-24T21:46:11.966Z,61.06
2022-08-24T21:48:39.224Z,63.40
2022-08-24T21:51:06.168Z,61.95
2022-08-24T21:53:32.746Z,57.78
2022-08-24T21:56:01.801Z,56.22
2022-08-24T21:58:28.939Z,57.30
2022-08-24T22:00:58.870Z,58.74
2022-08-24T22:03:27.540Z,60.61
2022-08-24T22:05:59.210Z,61.23
2022-08-24T22:08:26.252Z,63.77
2022-08-24T22:10:54.830Z,61.09
2022-08-24T22:13:21.269Z,57.12
2022-08-24T22:15:47.846Z,57.00
2022-08-24T22:18:15.264Z,58.25
2022-08-24T22:20:41.725Z,60.20
2022-08-24T22:23:08.262Z,61.46
2022-08-24T22:25:34.818Z,63.07
2022-08-24T22:28:01.322Z,61.28
2022-08-24T22:30:27.813Z,56.88
2022-08-24T22:32:54.238Z,56.58
2022-08-24T22:35:20.676Z,57.90
2022-08-24T22:37:47.340Z,59.33
2022-08-24T22:40:14.314Z,61.53
2022-08-24T22:42:40.938Z,62.93
2022-08-24T22:45:09.209Z,61.15
2022-08-24T22:47:36.679Z,56.73
2022-08-24T22:50:05.987Z,57.40
2022-08-24T22:52:32.341Z,59.23
2022-08-24T22:54:58.784Z,60.30
2022-08-24T22:57:25.387Z,62.22
2022-08-24T22:59:53.254Z,64.25
2022-08-24T23:02:20.492Z,59.76
2022-08-24T23:04:49.985Z,57.25
2022-08-24T23:07:16.994Z,58.26
2022-08-24T23:09:45.417Z,60.07
2022-08-24T23:12:21.799Z,61.82
2022-08-24T23:14:50.190Z,63.62
2022-08-24T23:17:17.847Z,61.01
2022-08-24T23:20:00.042Z,57.42
2022-08-24T23:22:31.823Z,57.43
2022-08-24T23:24:59.124Z,59.08
2022-08-24T23:27:32.782Z,61.49
2022-08-24T23:30:07.848Z,63.06
2022-08-24T23:32:34.289Z,59.59
2022-08-24T23:35:00.950Z,57.03
2022-08-24T23:37:27.924Z,57.52
2022-08-24T23:39:54.438Z,59.18
2022-08-24T23:42:20.963Z,60.68
2022-08-24T23:44:47.465Z,63.61
2022-08-24T23:47:13.900Z,61.15
2022-08-24T23:49:41.113Z,57.28
2022-08-24T23:52:07.529Z,57.16
2022-08-24T23:54:34.400Z,58.52
2022-08-24T23:57:03.379Z,59.70
2022-08-24T23:59:29.793Z,61.25
